createdAt,value
2022-12-12T00:00:05.199Z,99.10
2022-12-12T00:01:05.352Z,99.15
2022-12-12T00:02:05.536Z,99.04
2022-12-12T00:03:05.765Z,98.94
2022-12-12T00:04:05.840Z,99.04
2022-12-12T00:05:06.004Z,99.04
2022-12-12T00:06:06.189Z,99.15
2022-12-12T00:07:06.361Z,99.15
2022-12-12T00:08:06.587Z,99.15
2022-12-12T00:09:06.738Z,99.25
2022-12-12T00:10:06.912Z,99.25
2022-12-12T00:11:07.083Z,99.25
2022-12-12T00:12:07.269Z,99.15
2022-12-12T00:13:07.434Z,99.25
2022-12-12T00:14:07.618Z,99.35
2022-12-12T00:15:07.787Z,99.15
2022-12-12T00:16:08.025Z,98.94
2022-12-12T00:17:08.098Z,98.94
2022-12-12T00:18:08.308Z,98.94
2022-12-12T00:19:08.489Z,98.88
2022-12-12T00:20:08.668Z,99.08
2022-12-12T00:21:08.828Z,99.19
2022-12-12T00:22:09.004Z,99.19
2022-12-12T00:23:09.176Z,99.40
2022-12-12T00:24:09.355Z,99.40
2022-12-12T00:25:09.719Z,99.40
2022-12-12T00:26:09.665Z,99.51
2022-12-12T00:27:09.845Z,99.51
2022-12-12T00:28:10.027Z,99.61
2022-12-12T00:29:10.192Z,99.61
2022-12-12T00:30:10.397Z,99.67
2022-12-12T00:31:10.626Z,99.77
2022-12-12T00:32:10.732Z,99.67
2022-12-12T00:33:10.910Z,99.67
2022-12-12T00:34:11.097Z,99.57
2022-12-12T00:35:11.592Z,99.46
2022-12-12T00:36:11.451Z,99.46
2022-12-12T00:37:11.621Z,99.46
2022-12-12T00:38:11.802Z,99.46
2022-12-12T00:39:18.025Z,99.46
2022-12-12T00:40:13.090Z,99.67
2022-12-12T00:41:12.243Z,99.67
2022-12-12T00:42:12.426Z,99.46
2022-12-12T00:43:12.599Z,99.35
2022-12-12T00:44:12.777Z,99.15
2022-12-12T00:45:13.088Z,99.15
2022-12-12T00:46:13.204Z,99.25
2022-12-12T00:47:13.231Z,99.35
2022-12-12T00:48:13.415Z,99.35
2022-12-12T00:49:13.584Z,99.40
2022-12-12T00:50:13.775Z,99.51
2022-12-12T00:51:13.951Z,99.46
2022-12-12T00:52:14.137Z,99.51
2022-12-12T00:53:14.327Z,99.61
2022-12-12T00:54:14.522Z,99.71
2022-12-12T00:55:14.982Z,99.77
2022-12-12T00:56:14.923Z,99.88
2022-12-12T00:57:15.114Z,99.77
2022-12-12T00:58:15.306Z,99.77
2022-12-12T00:59:15.485Z,99.77
2022-12-12T01:00:15.670Z,99.77
2022-12-12T01:01:15.878Z,99.67
2022-12-12T01:02:16.051Z,99.77
2022-12-12T01:03:16.285Z,99.77
2022-12-12T01:04:16.354Z,99.67
2022-12-12T01:05:16.530Z,99.57
2022-12-12T01:06:16.718Z,99.77
2022-12-12T01:07:16.902Z,99.98
2022-12-12T01:08:17.128Z,99.98
2022-12-12T01:09:17.199Z,99.98
2022-12-12T01:10:17.387Z,99.99
2022-12-12T01:11:17.555Z,99.99
2022-12-12T01:12:17.732Z,99.99
2022-12-12T01:13:17.921Z,99.98
2022-12-12T01:14:18.110Z,99.99
2022-12-12T01:15:18.277Z,99.99
2022-12-12T01:16:18.526Z,99.99
2022-12-12T01:17:18.585Z,99.99
2022-12-12T01:18:18.776Z,99.99
2022-12-12T01:19:18.998Z,99.99
2022-12-12T01:20:19.071Z,99.99
2022-12-12T01:21:19.233Z,99.99
2022-12-12T01:22:19.416Z,99.99
2022-12-12T01:23:19.589Z,99.99
2022-12-12T01:24:19.757Z,99.99
2022-12-12T01:25:19.933Z,99.98
2022-12-12T01:26:20.115Z,99.99
2022-12-12T01:27:20.281Z,99.99
2022-12-12T01:28:20.460Z,99.99
2022-12-12T01:29:20.621Z,99.99
2022-12-12T01:30:20.801Z,99.99
2022-12-12T01:31:21.066Z,99.99
2022-12-12T01:32:21.181Z,99.99
2022-12-12T01:33:21.360Z,99.99
2022-12-12T01:34:21.539Z,99.99
2022-12-12T01:35:21.709Z,99.99
2022-12-12T01:36:21.893Z,99.99
2022-12-12T01:37:22.058Z,99.99
2022-12-12T01:38:22.249Z,99.99
2022-12-12T01:39:22.417Z,99.99
2022-12-12T01:40:22.612Z,99.99
2022-12-12T01:41:22.786Z,99.99
2022-12-12T01:42:22.964Z,99.99
2022-12-12T01:43:23.137Z,99.99
2022-12-12T01:44:23.316Z,99.99
2022-12-12T01:45:23.486Z,99.99
2022-12-12T01:46:23.703Z,99.99
2022-12-12T01:47:23.769Z,99.99
2022-12-12T01:48:23.950Z,99.99
2022-12-12T01:49:24.128Z,99.99
2022-12-12T01:50:24.308Z,99.99
2022-12-12T01:51:24.483Z,99.99
2022-12-12T01:52:24.666Z,99.99
2022-12-12T01:53:24.832Z,99.99
2022-12-12T01:54:25.002Z,99.99
2022-12-12T01:55:25.188Z,99.99
2022-12-12T01:56:25.374Z,99.99
2022-12-12T01:57:25.556Z,99.99
2022-12-12T01:58:25.749Z,99.99
2022-12-12T01:59:25.953Z,99.99
2022-12-12T02:00:26.177Z,99.99
2022-12-12T02:01:26.238Z,99.99
2022-12-12T02:02:26.462Z,99.99
2022-12-12T02:03:26.631Z,99.99
2022-12-12T02:04:26.828Z,99.99
2022-12-12T02:05:27.007Z,99.99
2022-12-12T02:06:27.185Z,99.99
2022-12-12T02:07:27.388Z,99.99
2022-12-12T02:08:27.611Z,99.99
2022-12-12T02:09:27.762Z,99.99
2022-12-12T02:10:27.926Z,99.99
2022-12-12T02:11:28.085Z,99.99
2022-12-12T02:12:28.285Z,99.99
2022-12-12T02:13:28.434Z,99.99
2022-12-12T02:14:28.615Z,99.99
2022-12-12T02:15:28.778Z,99.99
2022-12-12T02:16:29.002Z,99.99
2022-12-12T02:17:29.043Z,99.99
2022-12-12T02:18:29.234Z,99.99
2022-12-12T02:19:29.392Z,99.99
2022-12-12T02:20:29.575Z,99.99
2022-12-12T02:21:29.743Z,99.99
2022-12-12T02:22:29.921Z,99.99
2022-12-12T02:23:30.083Z,99.99
2022-12-12T02:24:30.260Z,99.99
2022-12-12T02:25:30.420Z,99.99
2022-12-12T02:26:30.600Z,99.99
2022-12-12T02:27:30.776Z,99.99
2022-12-12T02:28:30.943Z,99.99
2022-12-12T02:29:31.099Z,99.99
2022-12-12T02:30:31.277Z,99.99
2022-12-12T02:31:31.571Z,99.99
2022-12-12T02:32:31.624Z,99.99
2022-12-12T02:33:31.787Z,99.99
2022-12-12T02:34:31.958Z,99.99
2022-12-12T02:35:32.116Z,99.99
2022-12-12T02:36:32.291Z,99.99
2022-12-12T02:37:32.477Z,99.99
2022-12-12T02:38:32.637Z,99.99
2022-12-12T02:39:32.811Z,99.99
2022-12-12T02:40:32.970Z,99.99
2022-12-12T02:41:33.144Z,99.99
2022-12-12T02:42:33.298Z,99.99
2022-12-12T02:43:33.465Z,99.99
2022-12-12T02:44:33.620Z,99.99
2022-12-12T02:45:33.785Z,99.99
2022-12-12T02:46:34.054Z,99.99
2022-12-12T02:47:34.133Z,99.99
2022-12-12T02:48:34.291Z,99.99
2022-12-12T02:49:34.452Z,99.99
2022-12-12T02:50:34.615Z,99.99
2022-12-12T02:51:34.775Z,99.99
2022-12-12T02:52:34.950Z,99.99
2022-12-12T02:53:35.121Z,99.99
2022-12-12T02:54:35.280Z,99.99
2022-12-12T02:55:36.676Z,99.99
2022-12-12T02:56:35.580Z,99.99
2022-12-12T02:57:35.773Z,99.99
2022-12-12T02:58:35.933Z,99.99
2022-12-12T02:59:36.103Z,99.99
2022-12-12T03:00:36.310Z,99.99
2022-12-12T03:01:36.492Z,99.99
2022-12-12T03:02:36.666Z,99.99
2022-12-12T03:03:36.835Z,99.99
2022-12-12T03:04:37.000Z,99.99
2022-12-12T03:05:37.165Z,99.99
2022-12-12T03:06:40.936Z,99.99
2022-12-12T03:07:37.454Z,99.99
2022-12-12T03:08:37.610Z,99.99
2022-12-12T03:09:37.785Z,99.99
2022-12-12T03:10:37.938Z,99.99
2022-12-12T03:11:38.119Z,99.99
2022-12-12T03:12:38.283Z,99.99
2022-12-12T03:13:38.451Z,99.99
2022-12-12T03:14:38.604Z,99.99
2022-12-12T03:15:38.773Z,99.99
2022-12-12T03:16:38.975Z,99.99
2022-12-12T03:17:39.155Z,99.99
2022-12-12T03:18:39.319Z,99.99
2022-12-12T03:19:39.478Z,99.99
2022-12-12T03:20:39.636Z,99.99
2022-12-12T03:21:39.800Z,99.99
2022-12-12T03:22:40.920Z,99.99
2022-12-12T03:23:40.087Z,99.99
2022-12-12T03:24:40.252Z,99.99
2022-12-12T03:25:40.411Z,99.99
2022-12-12T03:26:40.570Z,99.99
2022-12-12T03:27:40.743Z,99.99
2022-12-12T03:28:40.903Z,99.99
2022-12-12T03:29:41.078Z,99.99
2022-12-12T03:30:41.236Z,99.99
2022-12-12T03:31:41.472Z,99.99
2022-12-12T03:32:41.546Z,99.99
2022-12-12T03:33:41.701Z,99.99
2022-12-12T03:34:41.853Z,99.99
2022-12-12T03:35:42.010Z,99.99
2022-12-12T03:36:42.173Z,99.99
2022-12-12T03:37:42.358Z,99.99
2022-12-12T03:38:42.513Z,99.99
2022-12-12T03:39:42.686Z,99.99
2022-12-12T03:40:42.827Z,99.99
2022-12-12T03:41:42.991Z,99.99
2022-12-12T03:42:43.165Z,99.99
2022-12-12T03:43:43.332Z,99.99
2022-12-12T03:44:43.483Z,99.99
2022-12-12T03:45:43.671Z,99.99
2022-12-12T03:46:43.803Z,99.99
2022-12-12T03:47:43.990Z,99.99
2022-12-12T03:48:44.155Z,99.99
2022-12-12T03:49:44.324Z,99.99
2022-12-12T03:50:44.476Z,99.99
2022-12-12T03:51:44.650Z,99.99
2022-12-12T03:52:44.824Z,99.99
2022-12-12T03:53:44.987Z,99.99
2022-12-12T03:54:45.143Z,99.99
2022-12-12T03:55:45.307Z,99.99
2022-12-12T03:56:45.472Z,99.99
2022-12-12T03:57:45.664Z,99.99
2022-12-12T03:58:45.829Z,99.99
2022-12-12T03:59:46.001Z,99.99
2022-12-12T04:00:46.185Z,99.99
2022-12-12T04:01:46.335Z,99.99
2022-12-12T04:02:46.504Z,99.99
2022-12-12T04:03:53.699Z,99.99
2022-12-12T04:04:46.809Z,99.99
2022-12-12T04:05:46.983Z,99.99
2022-12-12T04:06:47.149Z,99.99
2022-12-12T04:07:47.363Z,99.99
2022-12-12T04:08:47.496Z,99.99
2022-12-12T04:09:47.690Z,99.99
2022-12-12T04:10:47.827Z,99.99
2022-12-12T04:11:47.995Z,99.99
2022-12-12T04:12:48.170Z,99.99
2022-12-12T04:13:48.386Z,99.99
2022-12-12T04:14:48.546Z,99.99
2022-12-12T04:15:48.733Z,99.99
2022-12-12T04:16:48.926Z,99.99
2022-12-12T04:17:49.076Z,99.99
2022-12-12T04:18:49.242Z,99.99
2022-12-12T04:19:49.458Z,99.99
2022-12-12T04:20:49.588Z,99.99
2022-12-12T04:21:49.769Z,99.99
2022-12-12T04:22:49.943Z,99.99
2022-12-12T04:23:50.167Z,99.99
2022-12-12T04:24:50.192Z,99.99
2022-12-12T04:25:50.351Z,99.99
2022-12-12T04:26:50.505Z,99.99
2022-12-12T04:27:50.688Z,99.99
2022-12-12T04:28:50.841Z,99.99
2022-12-12T04:29:51.009Z,99.99
2022-12-12T04:30:51.223Z,99.99
2022-12-12T04:31:51.362Z,99.99
2022-12-12T04:32:51.380Z,99.99
2022-12-12T04:33:51.700Z,99.99
2022-12-12T04:34:51.638Z,99.99
2022-12-12T04:35:51.822Z,99.99
2022-12-12T04:36:51.979Z,99.99
2022-12-12T04:37:52.167Z,99.99
2022-12-12T04:38:52.325Z,99.99
2022-12-12T04:39:52.718Z,99.99
2022-12-12T04:40:52.625Z,99.99
2022-12-12T04:41:52.803Z,99.99
2022-12-12T04:42:52.972Z,99.99
2022-12-12T04:43:53.143Z,99.99
2022-12-12T04:44:53.295Z,99.99
2022-12-12T04:45:53.563Z,99.99
2022-12-12T04:46:53.593Z,99.99
2022-12-12T04:47:53.827Z,99.99
2022-12-12T04:48:54.006Z,99.99
2022-12-12T04:49:54.062Z,99.99
2022-12-12T04:50:54.235Z,99.99
2022-12-12T04:51:54.409Z,99.99
2022-12-12T04:52:54.563Z,99.99
2022-12-12T04:53:54.734Z,99.99
2022-12-12T04:54:54.904Z,99.99
2022-12-12T04:55:55.068Z,99.92
2022-12-12T04:56:55.232Z,99.82
2022-12-12T04:57:55.441Z,99.82
2022-12-12T04:58:55.492Z,99.92
2022-12-12T04:59:55.674Z,99.92
2022-12-12T05:00:55.883Z,99.92
2022-12-12T05:01:56.029Z,99.82
2022-12-12T05:02:56.198Z,99.71
2022-12-12T05:03:56.374Z,99.61
2022-12-12T05:04:56.532Z,99.61
2022-12-12T05:05:56.727Z,99.61
2022-12-12T05:06:56.889Z,99.51
2022-12-12T05:07:57.137Z,99.61
2022-12-12T05:08:57.151Z,99.51
2022-12-12T05:09:57.337Z,99.51
2022-12-12T05:10:57.485Z,99.61
2022-12-12T05:11:57.650Z,99.51
2022-12-12T05:12:57.814Z,99.61
2022-12-12T05:13:57.974Z,99.51
2022-12-12T05:14:58.124Z,99.51
2022-12-12T05:15:58.332Z,99.61
2022-12-12T05:16:58.441Z,99.61
2022-12-12T05:17:58.487Z,99.51
2022-12-12T05:18:58.648Z,99.61
2022-12-12T05:19:58.813Z,99.61
2022-12-12T05:20:58.967Z,99.51
2022-12-12T05:21:59.125Z,99.51
2022-12-12T05:22:59.300Z,99.51
2022-12-12T05:23:59.509Z,99.51
2022-12-12T05:24:59.594Z,99.51
2022-12-12T05:25:59.771Z,99.51
2022-12-12T05:26:59.938Z,99.40
2022-12-12T05:28:00.109Z,99.51
2022-12-12T05:29:06.744Z,99.40
2022-12-12T05:30:01.732Z,99.51
2022-12-12T05:31:00.711Z,99.40
2022-12-12T05:32:00.898Z,99.40
2022-12-12T05:33:01.048Z,99.51
2022-12-12T05:34:02.124Z,99.40
2022-12-12T05:35:01.390Z,99.29
2022-12-12T05:36:01.573Z,99.29
2022-12-12T05:37:02.163Z,99.40
2022-12-12T05:38:01.851Z,99.19
2022-12-12T05:39:02.013Z,99.19
2022-12-12T05:40:02.171Z,99.19
2022-12-12T05:41:02.355Z,99.08
2022-12-12T05:42:02.524Z,98.98
2022-12-12T05:43:02.710Z,98.98
2022-12-12T05:44:02.890Z,98.93
2022-12-12T05:45:03.042Z,98.83
2022-12-12T05:46:03.255Z,98.52
2022-12-12T05:47:03.436Z,98.41
2022-12-12T05:48:03.612Z,98.21
2022-12-12T05:49:03.767Z,98.10
2022-12-12T05:50:03.932Z,97.83
2022-12-12T05:51:04.088Z,97.83
2022-12-12T05:52:04.259Z,97.94
2022-12-12T05:53:04.422Z,97.94
2022-12-12T05:54:04.599Z,97.89
2022-12-12T05:55:04.766Z,97.99
2022-12-12T05:56:04.950Z,97.89
2022-12-12T05:57:05.108Z,97.78
2022-12-12T05:58:05.298Z,97.78
2022-12-12T05:59:05.457Z,97.68
2022-12-12T06:00:05.678Z,97.58
2022-12-12T06:01:05.827Z,97.47
2022-12-12T06:02:05.920Z,97.47
2022-12-12T06:03:06.076Z,97.37
2022-12-12T06:04:06.321Z,97.47
2022-12-12T06:05:06.383Z,97.47
2022-12-12T06:06:06.557Z,97.41
2022-12-12T06:07:06.717Z,97.52
2022-12-12T06:08:06.961Z,97.62
2022-12-12T06:09:07.058Z,97.72
2022-12-12T06:10:07.259Z,97.94
2022-12-12T06:11:07.454Z,97.94
2022-12-12T06:12:07.624Z,98.04
2022-12-12T06:13:07.802Z,98.25
2022-12-12T06:14:07.999Z,98.35
2022-12-12T06:15:08.177Z,98.35
2022-12-12T06:16:08.457Z,98.35
2022-12-12T06:17:08.494Z,98.35
2022-12-12T06:18:08.593Z,98.46
2022-12-12T06:19:08.650Z,98.56
2022-12-12T06:20:08.838Z,98.56
2022-12-12T06:21:09.025Z,98.67
2022-12-12T06:22:09.208Z,98.67
2022-12-12T06:23:09.545Z,98.67
2022-12-12T06:24:09.508Z,98.77
2022-12-12T06:25:09.713Z,98.77
2022-12-12T06:26:09.809Z,98.98
2022-12-12T06:27:09.880Z,98.88
2022-12-12T06:28:10.111Z,98.88
2022-12-12T06:29:10.188Z,98.67
2022-12-12T06:30:10.453Z,98.67
2022-12-12T06:31:12.026Z,98.67
2022-12-12T06:32:10.707Z,98.56
2022-12-12T06:33:10.846Z,98.56
2022-12-12T06:34:10.948Z,98.56
2022-12-12T06:35:11.323Z,98.46
2022-12-12T06:36:11.171Z,98.35
2022-12-12T06:37:17.039Z,98.46
2022-12-12T06:38:12.480Z,98.14
2022-12-12T06:39:11.555Z,98.14
2022-12-12T06:40:11.756Z,98.04
2022-12-12T06:41:11.951Z,98.04
2022-12-12T06:42:12.148Z,98.14
2022-12-12T06:43:12.256Z,98.46
2022-12-12T06:44:12.374Z,98.56
2022-12-12T06:45:12.828Z,98.83
2022-12-12T06:46:12.793Z,99.25
2022-12-12T06:47:12.780Z,99.15
2022-12-12T06:48:12.961Z,99.25
2022-12-12T06:49:13.130Z,99.04
2022-12-12T06:50:13.327Z,98.72
2022-12-12T06:51:13.491Z,98.21
2022-12-12T06:52:13.691Z,97.99
2022-12-12T06:53:13.920Z,97.89
2022-12-12T06:54:13.870Z,97.89
2022-12-12T06:55:14.418Z,97.94
2022-12-12T06:56:14.178Z,97.99
2022-12-12T06:57:14.354Z,97.94
2022-12-12T06:58:14.618Z,98.04
2022-12-12T06:59:14.650Z,98.14
2022-12-12T07:00:14.807Z,98.25
2022-12-12T07:01:15.076Z,98.46
2022-12-12T07:02:15.246Z,98.56
2022-12-12T07:03:15.344Z,98.56
2022-12-12T07:04:15.429Z,98.56
2022-12-12T07:05:15.793Z,98.67
2022-12-12T07:06:15.736Z,98.98
2022-12-12T07:07:15.906Z,99.08
2022-12-12T07:08:16.268Z,99.19
2022-12-12T07:09:16.311Z,99.29
2022-12-12T07:10:21.067Z,99.19
2022-12-12T07:11:17.501Z,98.98
2022-12-12T07:12:16.647Z,99.08
2022-12-12T07:13:16.872Z,99.08
2022-12-12T07:14:16.924Z,99.19
2022-12-12T07:15:17.107Z,98.98
2022-12-12T07:16:17.340Z,98.77
2022-12-12T07:17:17.411Z,98.88
2022-12-12T07:18:17.601Z,98.88
2022-12-12T07:19:17.773Z,98.98
2022-12-12T07:20:17.983Z,98.88
2022-12-12T07:21:18.165Z,98.88
2022-12-12T07:22:18.322Z,98.88
2022-12-12T07:23:18.517Z,98.88
2022-12-12T07:24:18.684Z,98.88
2022-12-12T07:25:18.906Z,98.88
2022-12-12T07:26:19.235Z,98.67
2022-12-12T07:27:21.758Z,98.56
2022-12-12T07:28:19.209Z,98.46
2022-12-12T07:29:19.517Z,98.46
2022-12-12T07:30:19.623Z,98.46
2022-12-12T07:31:19.785Z,98.46
2022-12-12T07:32:19.796Z,98.56
2022-12-12T07:33:20.063Z,98.46
2022-12-12T07:34:20.277Z,98.46
2022-12-12T07:35:20.419Z,98.35
2022-12-12T07:36:20.427Z,98.21
2022-12-12T07:37:20.537Z,98.31
2022-12-12T07:38:20.646Z,97.99
2022-12-12T07:39:21.286Z,97.99
2022-12-12T07:40:21.635Z,97.99
2022-12-12T07:41:21.070Z,97.78
2022-12-12T07:42:21.153Z,97.89
2022-12-12T07:43:21.371Z,97.89
2022-12-12T07:44:21.443Z,97.78
2022-12-12T07:45:22.111Z,97.47
2022-12-12T07:46:21.791Z,97.47
2022-12-12T07:47:21.882Z,97.47
2022-12-12T07:48:22.072Z,97.37
2022-12-12T07:49:22.300Z,97.47
2022-12-12T07:50:22.379Z,97.16
2022-12-12T07:51:22.617Z,97.47
2022-12-12T07:52:22.711Z,97.37
2022-12-12T07:53:22.847Z,97.16
2022-12-12T07:54:22.968Z,96.84
2022-12-12T07:55:23.049Z,96.95
2022-12-12T07:56:23.235Z,97.05
2022-12-12T07:57:23.589Z,97.05
2022-12-12T07:58:23.832Z,96.95
2022-12-12T07:59:23.689Z,97.05
2022-12-12T08:00:23.858Z,96.95
2022-12-12T08:01:24.288Z,96.95
2022-12-12T08:02:24.199Z,96.53
2022-12-12T08:03:24.685Z,96.22
2022-12-12T08:04:24.571Z,96.43
2022-12-12T08:05:24.644Z,96.22
2022-12-12T08:06:24.803Z,96.01
2022-12-12T08:07:25.510Z,96.11
2022-12-12T08:08:25.182Z,96.22
2022-12-12T08:09:26.083Z,96.33
2022-12-12T08:10:25.372Z,96.11
2022-12-12T08:11:25.563Z,96.11
2022-12-12T08:12:25.754Z,96.01
2022-12-12T08:13:25.909Z,95.80
2022-12-12T08:14:26.057Z,95.90
2022-12-12T08:15:26.149Z,95.59
2022-12-12T08:16:26.263Z,95.59
2022-12-12T08:17:26.349Z,95.80
2022-12-12T08:18:26.548Z,95.59
2022-12-12T08:19:26.839Z,95.49
2022-12-12T08:20:26.946Z,95.70
2022-12-12T08:21:27.241Z,95.38
2022-12-12T08:22:27.219Z,95.49
2022-12-12T08:23:27.430Z,95.70
2022-12-12T08:24:27.663Z,96.11
2022-12-12T08:25:27.827Z,95.90
2022-12-12T08:26:27.907Z,95.59
2022-12-12T08:27:28.077Z,95.80
2022-12-12T08:28:28.311Z,95.80
2022-12-12T08:29:28.445Z,96.01
2022-12-12T08:30:28.501Z,96.01
2022-12-12T08:31:28.714Z,96.01
2022-12-12T08:32:28.827Z,96.11
2022-12-12T08:33:29.073Z,95.90
2022-12-12T08:34:29.135Z,95.80
2022-12-12T08:35:29.312Z,95.38
2022-12-12T08:36:29.484Z,95.28
2022-12-12T08:37:29.724Z,95.07
2022-12-12T08:38:29.856Z,94.96
2022-12-12T08:39:29.938Z,94.96
2022-12-12T08:40:30.101Z,94.65
2022-12-12T08:41:30.307Z,94.65
2022-12-12T08:42:30.461Z,94.55
2022-12-12T08:43:30.581Z,94.55
2022-12-12T08:44:30.659Z,94.23
2022-12-12T08:45:30.751Z,94.13
2022-12-12T08:46:30.983Z,93.92
2022-12-12T08:47:31.040Z,93.98
2022-12-12T08:48:31.269Z,93.98
2022-12-12T08:49:31.333Z,93.88
2022-12-12T08:50:31.496Z,93.88
2022-12-12T08:51:31.728Z,93.57
2022-12-12T08:52:31.805Z,93.29
2022-12-12T08:53:31.998Z,93.29
2022-12-12T08:54:32.120Z,93.40
2022-12-12T08:55:32.213Z,93.35
2022-12-12T08:56:32.316Z,93.35
2022-12-12T08:57:32.397Z,93.25
2022-12-12T08:58:32.629Z,93.15
2022-12-12T08:59:32.684Z,93.04
2022-12-12T09:00:32.900Z,93.15
2022-12-12T09:01:33.048Z,92.41
2022-12-12T09:02:33.237Z,92.31
2022-12-12T09:03:33.274Z,92.21
2022-12-12T09:04:33.446Z,92.21
2022-12-12T09:05:33.602Z,92.10
2022-12-12T09:06:33.770Z,92.10
2022-12-12T09:07:33.932Z,91.85
2022-12-12T09:08:34.196Z,91.43
2022-12-12T09:09:34.316Z,91.06
2022-12-12T09:10:34.348Z,91.27
2022-12-12T09:11:34.518Z,91.27
2022-12-12T09:12:41.239Z,91.06
2022-12-12T09:13:35.889Z,90.95
2022-12-12T09:14:34.942Z,91.12
2022-12-12T09:15:35.105Z,91.12
2022-12-12T09:16:35.331Z,91.12
2022-12-12T09:17:35.513Z,91.02
2022-12-12T09:18:35.716Z,91.12
2022-12-12T09:19:35.819Z,91.02
2022-12-12T09:20:35.887Z,91.02
2022-12-12T09:21:36.078Z,90.81
2022-12-12T09:22:36.259Z,90.70
2022-12-12T09:23:36.446Z,90.39
2022-12-12T09:24:36.618Z,90.50
2022-12-12T09:25:41.284Z,90.28
2022-12-12T09:26:37.907Z,90.50
2022-12-12T09:27:37.097Z,90.60
2022-12-12T09:28:37.185Z,90.60
2022-12-12T09:29:37.301Z,90.39
2022-12-12T09:30:37.371Z,90.50
2022-12-12T09:31:37.624Z,90.39
2022-12-12T09:32:37.840Z,89.93
2022-12-12T09:33:37.885Z,89.41
2022-12-12T09:34:38.063Z,89.10
2022-12-12T09:35:38.265Z,88.68
2022-12-12T09:36:38.311Z,88.99
2022-12-12T09:37:38.583Z,88.89
2022-12-12T09:38:38.672Z,88.89
2022-12-12T09:39:38.831Z,88.78
2022-12-12T09:40:38.971Z,88.43
2022-12-12T09:41:39.131Z,88.32
2022-12-12T09:42:39.275Z,88.29
2022-12-12T09:43:39.440Z,86.93
2022-12-12T09:44:39.583Z,86.83
2022-12-12T09:45:39.807Z,86.06
2022-12-12T09:46:39.897Z,86.71
2022-12-12T09:47:40.091Z,86.21
2022-12-12T09:48:40.203Z,83.95
2022-12-12T09:49:43.695Z,81.81
2022-12-12T09:50:40.421Z,81.08
2022-12-12T09:51:40.580Z,80.56
2022-12-12T09:52:40.719Z,80.77
2022-12-12T09:53:40.920Z,80.80
2022-12-12T09:54:40.955Z,81.22
2022-12-12T09:55:41.175Z,80.49
2022-12-12T09:56:41.157Z,80.80
2022-12-12T09:57:41.269Z,80.74
2022-12-12T09:58:47.295Z,80.80
2022-12-12T09:59:42.563Z,80.15
2022-12-12T10:00:41.713Z,78.89
2022-12-12T10:01:41.903Z,79.24
2022-12-12T10:02:41.903Z,79.76
2022-12-12T10:03:42.024Z,80.32
2022-12-12T10:04:50.995Z,80.94
2022-12-12T10:05:42.224Z,81.08
2022-12-12T10:06:42.309Z,78.55
2022-12-12T10:07:42.421Z,78.72
2022-12-12T10:08:42.501Z,78.93
2022-12-12T10:09:42.581Z,79.41
2022-12-12T10:10:42.673Z,78.30
2022-12-12T10:11:42.733Z,76.78
2022-12-12T10:12:42.793Z,76.02
2022-12-12T10:13:42.884Z,75.33
2022-12-12T10:14:42.930Z,76.43
2022-12-12T10:15:43.091Z,75.19
2022-12-12T10:16:43.262Z,75.29
2022-12-12T10:17:43.306Z,74.08
2022-12-12T10:18:43.481Z,72.71
2022-12-12T10:19:43.510Z,71.81
2022-12-12T10:20:43.635Z,71.80
2022-12-12T10:21:43.760Z,72.18
2022-12-12T10:22:43.880Z,74.08
2022-12-12T10:23:44.030Z,74.11
2022-12-12T10:24:44.142Z,73.32
2022-12-12T10:25:44.269Z,72.25
2022-12-12T10:26:44.378Z,71.33
2022-12-12T10:27:44.497Z,71.25
2022-12-12T10:28:44.616Z,72.56
2022-12-12T10:29:44.744Z,73.28
2022-12-12T10:30:44.858Z,72.01
2022-12-12T10:31:45.026Z,71.39
2022-12-12T10:32:45.053Z,71.01
2022-12-12T10:33:45.188Z,70.05
2022-12-12T10:34:45.288Z,68.88
2022-12-12T10:35:45.387Z,68.61
2022-12-12T10:36:45.474Z,67.78
2022-12-12T10:37:45.579Z,67.27
2022-12-12T10:38:45.673Z,67.19
2022-12-12T10:39:45.757Z,67.24
2022-12-12T10:40:45.833Z,66.41
2022-12-12T10:41:45.913Z,65.97
2022-12-12T10:42:45.991Z,65.55
2022-12-12T10:43:46.081Z,65.58
2022-12-12T10:44:47.498Z,66.03
2022-12-12T10:45:46.229Z,65.92
2022-12-12T10:46:46.785Z,66.30
2022-12-12T10:47:46.375Z,65.11
2022-12-12T10:48:46.455Z,64.21
2022-12-12T10:49:46.523Z,65.37
2022-12-12T10:50:46.586Z,65.09
2022-12-12T10:51:46.647Z,65.06
2022-12-12T10:52:46.713Z,64.42
2022-12-12T10:53:46.788Z,64.42
2022-12-12T10:54:46.843Z,63.87
2022-12-12T10:55:46.922Z,63.29
2022-12-12T10:56:46.976Z,63.67
2022-12-12T10:57:47.052Z,63.74
2022-12-12T10:58:47.116Z,62.85
2022-12-12T10:59:47.213Z,61.90
2022-12-12T11:00:47.318Z,61.21
2022-12-12T11:02:09.625Z,61.91
2022-12-12T11:02:48.506Z,64.51
2022-12-12T11:03:47.491Z,65.94
2022-12-12T11:04:47.551Z,67.83
2022-12-12T11:05:47.619Z,68.22
2022-12-12T11:06:47.690Z,68.80
2022-12-12T11:07:47.837Z,69.79
2022-12-12T11:08:47.818Z,70.52
2022-12-12T11:09:47.880Z,71.04
2022-12-12T11:10:47.951Z,69.49
2022-12-12T11:11:48.027Z,67.22
2022-12-12T11:12:48.197Z,65.92
2022-12-12T11:13:48.183Z,64.78
2022-12-12T11:14:48.256Z,64.11
2022-12-12T11:15:48.350Z,62.29
2022-12-12T11:16:48.507Z,61.41
2022-12-12T11:17:48.464Z,60.61
2022-12-12T11:18:48.563Z,60.77
2022-12-12T11:19:48.626Z,61.01
2022-12-12T11:20:48.641Z,61.11
2022-12-12T11:21:48.708Z,61.35
2022-12-12T11:22:48.780Z,61.76
2022-12-12T11:23:48.858Z,61.66
2022-12-12T11:24:48.911Z,62.51
2022-12-12T11:25:48.967Z,62.69
2022-12-12T11:26:49.053Z,62.07
2022-12-12T11:27:49.128Z,61.89
2022-12-12T11:28:49.218Z,63.22
2022-12-12T11:29:49.385Z,65.07
2022-12-12T11:30:49.366Z,66.38
2022-12-12T11:31:49.472Z,67.72
2022-12-12T11:32:49.548Z,67.61
2022-12-12T11:33:49.626Z,68.10
2022-12-12T11:34:49.779Z,67.48
2022-12-12T11:35:49.742Z,67.27
2022-12-12T11:36:49.820Z,66.83
2022-12-12T11:37:49.894Z,66.28
2022-12-12T11:38:49.999Z,65.84
2022-12-12T11:39:50.061Z,65.25
2022-12-12T11:40:50.148Z,64.70
2022-12-12T11:41:50.223Z,64.90
2022-12-12T11:42:50.299Z,64.67
2022-12-12T11:43:50.388Z,63.53
2022-12-12T11:44:50.475Z,63.81
2022-12-12T11:45:50.590Z,62.88
2022-12-12T11:46:50.654Z,63.19
2022-12-12T11:47:50.741Z,63.68
2022-12-12T11:48:50.842Z,62.75
2022-12-12T11:49:50.981Z,62.23
2022-12-12T11:50:51.035Z,62.57
2022-12-12T11:51:51.136Z,63.76
2022-12-12T11:52:51.222Z,64.73
2022-12-12T11:53:51.314Z,66.03
2022-12-12T11:54:51.396Z,67.13
2022-12-12T11:55:51.475Z,68.10
2022-12-12T11:56:51.556Z,69.40
2022-12-12T11:57:51.633Z,71.03
2022-12-12T11:58:51.742Z,73.07
2022-12-12T11:59:51.825Z,74.35
2022-12-12T12:00:51.935Z,75.22
2022-12-12T12:01:52.023Z,75.88
2022-12-12T12:02:52.163Z,77.17
2022-12-12T12:03:52.240Z,77.58
2022-12-12T12:04:53.482Z,78.00
2022-12-12T12:05:52.500Z,78.25
2022-12-12T12:06:52.658Z,78.66
2022-12-12T12:07:52.840Z,79.08
2022-12-12T12:08:52.890Z,79.50
2022-12-12T12:09:53.053Z,79.50
2022-12-12T12:10:53.212Z,79.81
2022-12-12T12:11:53.369Z,79.95
2022-12-12T12:12:53.557Z,80.37
2022-12-12T12:13:53.626Z,80.58
2022-12-12T12:14:53.712Z,80.79
2022-12-12T12:15:53.797Z,80.27
2022-12-12T12:16:53.912Z,80.47
2022-12-12T12:17:53.997Z,80.72
2022-12-12T12:18:54.101Z,80.62
2022-12-12T12:19:54.187Z,80.65
2022-12-12T12:20:54.306Z,81.18
2022-12-12T12:21:54.405Z,81.49
2022-12-12T12:22:54.531Z,81.80
2022-12-12T12:23:54.650Z,81.38
2022-12-12T12:24:54.769Z,80.41
2022-12-12T12:25:54.887Z,79.68
2022-12-12T12:26:55.024Z,78.94
2022-12-12T12:27:55.143Z,79.08
2022-12-12T12:28:55.287Z,78.98
2022-12-12T12:29:55.426Z,78.63
2022-12-12T12:30:55.610Z,78.21
2022-12-12T12:31:55.728Z,78.21
2022-12-12T12:32:55.918Z,78.32
2022-12-12T12:33:55.967Z,78.11
2022-12-12T12:34:56.115Z,78.53
2022-12-12T12:35:56.250Z,78.59
2022-12-12T12:36:56.381Z,77.97
2022-12-12T12:37:56.499Z,76.79
2022-12-12T12:38:56.659Z,75.74
2022-12-12T12:39:56.771Z,75.95
2022-12-12T12:40:56.909Z,76.06
2022-12-12T12:41:57.031Z,76.16
2022-12-12T12:42:57.157Z,76.47
2022-12-12T12:43:57.284Z,76.37
2022-12-12T12:44:57.417Z,75.95
2022-12-12T12:45:57.594Z,75.98
2022-12-12T12:46:57.710Z,76.51
2022-12-12T12:47:57.833Z,76.61
2022-12-12T12:48:57.958Z,77.14
2022-12-12T12:49:58.066Z,77.14
2022-12-12T12:50:58.193Z,76.61
2022-12-12T12:51:58.309Z,76.86
2022-12-12T12:52:58.435Z,77.06
2022-12-12T12:53:58.569Z,77.48